AirNav   ProFlight Series 2 Aviation Headset
 
 1271 users online  

S31 Lopez Island Airport
Lopez, Washington, USA

GOING TO LOPEZ?


FAA INFORMATION EFFECTIVE 16 JULY 2020

Location

FAA Identifier: S31
Lat/Long: 48-29-02.1000N 122-56-15.6000W
48-29.035000N 122-56.260000W
48.4839167,-122.9376667
(estimated)
Elevation: 208.8 ft. / 63.6 m (surveyed)
Variation: 21E (1985)
From city: 3 miles N of LOPEZ, WA
Time zone: UTC -7 (UTC -8 during Standard Time)
Zip code: 98261

Airport Operations

Airport use: Open to the public
Activation date: 06/1963
Control tower: no
ARTCC: SEATTLE CENTER
FSS: SEATTLE FLIGHT SERVICE STATION
NOTAMs facility: SEA (NOTAM-D service available)
Attendance: UNATNDD
Wind indicator: lighted
Segmented circle: yes
Beacon: white-green (lighted land airport)
Operates sunset to sunrise.
Landing fee: yes

Airport Communications

CTAF: 128.25
WX ASOS at FHR (4 nm NW): 135.675 (360-378-8491)
WX AWOS-3 at ORS (14 nm N): 135.425 (360-376-6045)
WX AWOS-3 at OKH (17 nm SE): 132.775 (360-675-8431)

Nearby radio navigation aids

VOR radial/distance  VOR name  Freq  Var
CVVr310/16.7PENN COVE VOR/DME117.2019E
YYJr107/26.1VICTORIA VOR/DME113.7017E
HUHr187/31.1WHATCOM VORTAC113.0020E
YVRr150/36.6VANCOUVER VOR/DME115.9017E

 
NDB name  Hdg/Dist  Freq  Var  ID
FRIDAY HARBOR099/3.828417EFHR ..-. .... .-.
SKAGIT/BAY VIEW257/20.724016EBVS -... ...- ...
EDIZ HOOK025/27.833817ENOW -. --- .--

Airport Services

Parking: tiedowns
Airframe service: NONE
Powerplant service: NONE
Bottled oxygen: NONE
Bulk oxygen: NONE

Runway Information

Runway 16/34

Dimensions: 2905 x 61 ft. / 885 x 19 m
Surface: asphalt/grooved, in good condition
Weight bearing capacity: 
Single wheel: 12.5
Runway edge lights: medium intensity
TWY MARKED WITH REFLECTORS.
RUNWAY 16  RUNWAY 34
Latitude: 48-29.273623N48-28.795922N
Longitude: 122-56.262050W122-56.259615W
Elevation: 208.8 ft.162.9 ft.
Traffic pattern: rightleft
Markings: basic, in fair conditionbasic, in fair condition
Visual slope indicator: 2-light PAPI on left (4.00 degrees glide path)2-light PAPI on left (4.00 degrees glide path)
Runway end identifier lights: yesyes
Touchdown point: yes, no lightsyes, no lights
Obstructions: 87 ft. trees, 1948 ft. from runway, 20:1 slope to clear60 ft. trees, 900 ft. from runway, 11:1 slope to clear

Airport Ownership and Management from official FAA records

Ownership: Publicly-owned
Owner: PORT OF LOPEZ
PO BOX 907
LOPEZ, WA 98261
Phone 360-468-4116
Manager: RICK HOFFMAN
PO BOX 907
LOPEZ, WA 98261
Phone 360-468-4116

Airport Operational Statistics

Aircraft based on the field: 24
Single engine airplanes: 23
Multi engine airplanes: 1
    
Aircraft operations: avg 27/day *
67% transient general aviation
25% air taxi
8% local general aviation
* for 12-month period ending 31 December 2018

Additional Remarks

RY 16/34 SOFT SHOULDERS & THLDS.
FOR CD CTC WHIDBEY APCH AT 360-257-3310.

Instrument Procedures

There are no published instrument procedures at S31.

Some nearby airports with instrument procedures:

KFHR - Friday Harbor Airport (4 nm NW)
KORS - Orcas Island Airport (14 nm N)
KNUW - Whidbey Island Naval Air Station (Ault Field) (14 nm SE)
KOKH - AJ Eisenberg Airport (17 nm SE)
KBVS - Skagit Regional Airport (21 nm E)
 
Loc | Ops | Rwys | IFR | FBO | Links
Com | Nav | Svcs | Stats | Notes
Area around S31 (Lopez Island Airport)
 
Road maps at: MapQuest Bing Google
 
Aerial photo
WARNING: Photo may not be current or correct
Aerial photo of S31 (Lopez Island Airport)
Photo by Peter Sauerwein
Photo taken 22-Jun-2011
looking north.

Do you have a better or more recent aerial photo of Lopez Island Airport that you would like to share? If so, please send us your photo.

 
Sectional chart

 
Airport distance calculator
Flying to Lopez Island Airport? Find the distance to fly.

From to S31

Sunrise and sunset
Times for 12-Aug-2020
 Local
(UTC-7)
 Zulu
(UTC)
Morning civil twilight05:2912:29
Sunrise06:0413:04
Sunset20:2903:29
Evening civil twilight21:0404:04

Current date and time
Zulu (UTC)  12-Aug-2020 13:59:58
Local (UTC-7)  12-Aug-2020 06:59:58
 
METAR
KFHR 
4nm NW 
121353Z AUTO 00000KT 10SM FEW048 BKN070 11/10 A3000 RMK AO2 SLP160 T01110100 TSNO
KORS 
13nm N 
121355Z AUTO 16003KT 10SM FEW055 OVC070 13/10 A2999 RMK AO2
CWYJ 
14nm W 
121300Z AUTO 26003KT 11/09 RMK AO1 SLP153 T01110086 53010
KNUW 
14nm SE 
121256Z 22006KT 10SM FEW030 BKN040 BKN250 13/09 A3003 RMK AO2 SLP168 T01330089 VISNO $
CWLM 
16nm W 
121300Z AUTO 26006KT 12/09 RMK AO1 SLP152 T01190091 53010
CYWH 
16nm W 
121336Z 23003KT 200V280 15SM BKN064 13/09 A2999 RMK SC5 SLP156
CWPF 
19nm W 
121345Z AUTO 33001KT 13/09 RMK AO1 SLP153 T01250087 53013
TAF
KNUW 
14nm SE 
1207/1307 23009KT 9999 SCT030 BKN060 BKN250 QNH2990INS TEMPO 1207/1210 27018G22KT FM121200 16009KT 9999 VCSH SCT015 BKN030 BKN250 QNH2994INS TEMPO 1212/1218 VRB06KT 4800 -RA BR BKN019 BKN030 BKN250 FM121800 22009KT 9999 FEW030 FEW250 QNH3004INS T10/1213Z T19/1123Z FS30164
CYWH 
16nm W 
112038Z 1121/1202 19008KT P6SM FEW030 BKN220 BECMG 1121/1123 23015G25KT RMK NXT FCST WILL BE ISSUED AT 121515Z
NOTAMs
Click for the latest NOTAMs
NOTAMs are issued by the DoD/FAA and will open in a separate window not controlled by AirNav.

 

 
 

Would you like to see your business listed on this page?

 If your business provides an interesting product or service to pilots, flight crews, aircraft, or users of the Lopez Island Airport, you should consider listing it here.  To start the listing process, click on the button below
 
Add a business
 

Other Pages about Lopez Island Airport

Update a link
 
Copyright © AirNav, LLC. All rights reserved. Privacy Policy  Contact